createdAt,value
2018-08-16T02:49:38.735Z,0
2018-08-16T05:27:48.985Z,11264
2018-08-16T05:28:55.911Z,11008
2018-08-16T05:29:50.456Z,11936
2018-08-16T05:30:30.942Z,12512
2018-08-16T05:31:11.373Z,13248
2018-08-16T05:31:51.853Z,13248
2018-08-16T05:32:32.216Z,13696
2018-08-16T05:33:12.632Z,13376
2018-08-16T05:33:52.997Z,13312
2018-08-16T05:34:33.437Z,13664
2018-08-16T05:35:13.850Z,13952
2018-08-16T05:35:54.249Z,14304
2018-08-16T05:36:34.683Z,14464
2018-08-16T05:37:15.073Z,15328
2018-08-16T05:37:55.528Z,15712
2018-08-16T05:38:35.884Z,15872
2018-08-16T05:39:16.258Z,16096
2018-08-16T05:39:56.744Z,15392
2018-08-16T05:40:37.078Z,15840
2018-08-16T05:41:17.566Z,16000
2018-08-16T05:41:57.928Z,16768
2018-08-16T05:42:38.306Z,16544
2018-08-16T05:43:18.819Z,16832
2018-08-16T05:43:59.164Z,16800
2018-08-16T05:44:39.658Z,16992
2018-08-16T05:45:20.007Z,18080
2018-08-16T05:46:00.509Z,18592
2018-08-16T05:46:40.876Z,19296
2018-08-16T05:47:21.368Z,19616
2018-08-16T05:48:02.013Z,19328
2018-08-16T05:48:42.510Z,19392
2018-08-16T05:49:23.017Z,20096
2018-08-16T05:50:03.464Z,20192
2018-08-16T05:50:43.836Z,19968
2018-08-16T05:51:24.291Z,19808
2018-08-16T05:52:04.805Z,20064
2018-08-16T05:52:45.250Z,20672
2018-08-16T05:53:25.945Z,20704
2018-08-16T05:54:06.645Z,20800
2018-08-16T05:54:47.330Z,21216
2018-08-16T05:55:27.922Z,22272
2018-08-16T05:56:08.398Z,22336
2018-08-16T05:56:48.815Z,22496
2018-08-16T05:57:29.236Z,23200
2018-08-16T05:58:09.739Z,23264
2018-08-16T05:58:50.244Z,23136
2018-08-16T05:59:30.697Z,22816
2018-08-16T06:00:11.031Z,23488
2018-08-16T06:00:51.463Z,23520
2018-08-16T06:01:31.961Z,24448
2018-08-16T06:02:12.304Z,24832
2018-08-16T06:02:52.697Z,24960
2018-08-16T06:03:33.220Z,24864
2018-08-16T06:04:14.663Z,25888
2018-08-16T06:04:54.226Z,26624
2018-08-16T06:05:34.693Z,26688
2018-08-16T06:06:15.154Z,26848
2018-08-16T06:06:55.510Z,27232
2018-08-16T06:07:36.199Z,27424
2018-08-16T06:08:16.478Z,27296
2018-08-16T06:09:11.858Z,26624
2018-08-16T06:09:52.258Z,26656
2018-08-16T06:10:32.656Z,27104
2018-08-16T06:11:13.079Z,28256
2018-08-16T06:11:53.578Z,27520
2018-08-16T06:12:33.902Z,27904
2018-08-16T06:13:14.437Z,26752
2018-08-16T06:13:55.080Z,27360
2018-08-16T06:14:35.517Z,27392
2018-08-16T06:15:15.942Z,26944
2018-08-16T06:15:56.301Z,27136
2018-08-16T06:16:36.727Z,28384
2018-08-16T06:17:17.182Z,28704
2018-08-16T06:17:57.571Z,29312
2018-08-16T06:18:38.047Z,29344
2018-08-16T06:19:18.638Z,29344
2018-08-16T06:20:05.656Z,30304
2018-08-16T06:20:49.444Z,30624
2018-08-16T06:24:35.963Z,30880
2018-08-16T06:29:51.936Z,31744
2018-08-16T06:31:01.536Z,32512
2018-08-16T06:32:09.928Z,34624
2018-08-16T06:33:23.240Z,34976
2018-08-16T06:34:40.118Z,36320
2018-08-16T06:35:48.792Z,36000
2018-08-16T06:37:02.848Z,37696
2018-08-16T06:38:15.919Z,40128
2018-08-16T06:39:29.189Z,39872
2018-08-16T06:40:47.028Z,38784
2018-08-16T06:41:56.032Z,36096
2018-08-16T06:43:06.535Z,34048
2018-08-16T06:44:16.681Z,34624
2018-08-16T06:45:06.418Z,33728
2018-08-16T06:45:46.855Z,31520
2018-08-16T06:46:27.135Z,31264
2018-08-16T06:47:07.575Z,32608
2018-08-16T06:47:47.936Z,36544
2018-08-16T06:48:28.402Z,36736
2018-08-16T06:49:08.939Z,34656
2018-08-16T06:49:49.305Z,34016
2018-08-16T06:50:29.889Z,33600
2018-08-16T06:51:10.370Z,30880
2018-08-16T06:51:50.866Z,29856
2018-08-16T06:52:31.284Z,29088
2018-08-16T06:53:11.625Z,29504
2018-08-16T06:53:52.190Z,29728
2018-08-16T06:54:32.673Z,29600
2018-08-16T06:55:13.028Z,28640
2018-08-16T06:55:53.557Z,26816
2018-08-16T06:56:34.008Z,24448
2018-08-16T06:57:14.350Z,22496
2018-08-16T06:57:54.892Z,23040
2018-08-16T06:58:35.277Z,25888
2018-08-16T06:59:15.747Z,29184
2018-08-16T06:59:56.503Z,29920
2018-08-16T07:00:37.044Z,29280
2018-08-16T07:01:17.481Z,29024
2018-08-16T07:01:57.974Z,28992
2018-08-16T07:02:38.355Z,28736
2018-08-16T07:03:18.817Z,27872
2018-08-16T07:03:59.298Z,28512
2018-08-16T07:04:39.690Z,29184
2018-08-16T07:05:20.074Z,28640
2018-08-16T07:06:00.524Z,28032
2018-08-16T07:06:41.003Z,28512
2018-08-16T07:07:21.342Z,28768
2018-08-16T07:08:01.806Z,28352
2018-08-16T07:08:42.209Z,27520
2018-08-16T07:09:22.639Z,28128
2018-08-16T07:10:03.197Z,28768
2018-08-16T07:10:43.580Z,29696
2018-08-16T07:11:23.948Z,29344
2018-08-16T07:12:04.424Z,29696
2018-08-16T07:12:44.841Z,29824
2018-08-16T07:13:25.228Z,28096
2018-08-16T07:14:05.689Z,28288
2018-08-16T07:14:46.050Z,26240
2018-08-16T07:15:26.553Z,20224
2018-08-16T07:16:06.984Z,17120
2018-08-16T07:16:47.445Z,16512
2018-08-16T07:17:27.961Z,16224
2018-08-16T07:18:08.488Z,15872
2018-08-16T07:18:49.028Z,15400
2018-08-16T07:19:29.562Z,15220
2018-08-16T07:20:10.130Z,15044
2018-08-16T07:20:50.672Z,14980
2018-08-16T07:21:32.370Z,14588
2018-08-16T07:22:12.162Z,14328
2018-08-16T07:22:52.946Z,13888
2018-08-16T07:23:34.361Z,14040
2018-08-16T07:24:14.807Z,14464
2018-08-16T07:24:55.366Z,14472
2018-08-16T07:25:36.300Z,14564
2018-08-16T07:26:17.247Z,14528
2018-08-16T07:26:57.977Z,14164
2018-08-16T07:27:38.874Z,14016
2018-08-16T07:28:20.165Z,14064
2018-08-16T07:29:01.117Z,12864
2018-08-16T07:29:42.263Z,10580
2018-08-16T07:30:23.644Z,8300
2018-08-16T07:31:04.287Z,7072
2018-08-16T07:31:45.213Z,6796
2018-08-16T07:32:26.155Z,6696
2018-08-16T07:33:06.998Z,6628
2018-08-16T07:33:47.912Z,6516
2018-08-16T07:34:28.673Z,6456
2018-08-16T07:35:09.694Z,6340
2018-08-16T07:35:50.879Z,6172
2018-08-16T07:36:31.549Z,6028
2018-08-16T07:37:12.362Z,5956
2018-08-16T07:37:53.061Z,5912
2018-08-16T07:38:33.899Z,5856
2018-08-16T07:39:16.448Z,5740
2018-08-16T07:39:59.174Z,5672
2018-08-16T07:40:39.535Z,5636
2018-08-16T07:41:20.234Z,5668
2018-08-16T07:42:01.020Z,5724
2018-08-16T07:42:41.427Z,5656
2018-08-16T07:43:21.998Z,5432
2018-08-16T07:44:02.689Z,5176
2018-08-16T07:44:43.744Z,5036
2018-08-16T07:45:25.383Z,4968
2018-08-16T07:46:06.256Z,4936
2018-08-16T07:46:47.185Z,4872
2018-08-16T07:47:28.083Z,4556
2018-08-16T07:48:09.666Z,4540
2018-08-16T07:48:50.976Z,4532
2018-08-16T07:49:31.700Z,4416
2018-08-16T07:50:12.322Z,4300
2018-08-16T07:50:53.068Z,4148
2018-08-16T07:51:34.055Z,3924
2018-08-16T07:52:14.774Z,3720
2018-08-16T07:58:11.225Z,4052
2018-08-16T07:59:24.532Z,4196
2018-08-16T08:05:38.146Z,4368
2018-08-16T08:06:55.571Z,4188
2018-08-16T08:08:14.805Z,4204
2018-08-16T08:09:54.564Z,3632
2018-08-16T08:11:05.212Z,3524
2018-08-16T08:12:16.901Z,4040
2018-08-16T08:13:21.185Z,4096
2018-08-16T08:14:01.875Z,4068
2018-08-16T08:14:42.322Z,3984
2018-08-16T08:15:22.741Z,3928
2018-08-16T08:16:03.171Z,3900
2018-08-16T08:16:44.068Z,3844
2018-08-16T08:17:24.739Z,3784
2018-08-16T08:18:05.234Z,3624
2018-08-16T08:18:45.751Z,3644
2018-08-16T08:19:26.834Z,3672
2018-08-16T08:20:27.492Z,3568
2018-08-16T08:21:21.872Z,3536
2018-08-16T08:27:23.896Z,4112
2018-08-16T08:28:32.847Z,4316
2018-08-16T08:29:55.413Z,4156
2018-08-16T08:35:17.238Z,3600
2018-08-16T08:37:19.879Z,3652
2018-08-16T08:40:45.661Z,3320
2018-08-16T08:44:50.046Z,3448
2018-08-16T08:48:52.438Z,3404
2018-08-16T08:49:33.025Z,3304
2018-08-16T08:50:13.749Z,3192
2018-08-16T08:50:54.364Z,3224
2018-08-16T08:51:34.861Z,3276
2018-08-16T08:52:15.475Z,3332
2018-08-16T08:52:56.055Z,3372
2018-08-16T08:53:36.937Z,3356
2018-08-16T08:54:20.942Z,3348
2018-08-16T08:55:01.882Z,3396
2018-08-16T08:55:42.866Z,3364
2018-08-16T08:56:26.769Z,3308
2018-08-16T08:57:10.970Z,3004
2018-08-16T08:57:51.042Z,3152
2018-08-16T08:58:32.299Z,3100
2018-08-16T08:59:13.043Z,3044
2018-08-16T08:59:53.792Z,3060
2018-08-16T09:00:35.921Z,3108
2018-08-16T09:01:16.392Z,3128
2018-08-16T09:02:01.393Z,3104
2018-08-16T09:02:43.336Z,3048
2018-08-16T09:03:23.854Z,3048
2018-08-16T09:04:04.557Z,3016
2018-08-16T09:04:45.759Z,3040
2018-08-16T09:05:26.552Z,3080
2018-08-16T09:06:09.111Z,3148
2018-08-16T09:06:51.123Z,3160
2018-08-16T09:07:31.810Z,3124
2018-08-16T09:08:12.970Z,3136
2018-08-16T09:08:54.118Z,3188
2018-08-16T09:09:34.616Z,3100
2018-08-16T09:10:15.082Z,3048
2018-08-16T09:10:56.172Z,3000
2018-08-16T09:11:37.850Z,2936
2018-08-16T09:12:18.551Z,2932
2018-08-16T09:13:00.297Z,2916
2018-08-16T09:13:41.824Z,2872
2018-08-16T09:14:22.313Z,2928
2018-08-16T09:15:03.243Z,2916
2018-08-16T09:15:44.767Z,2936
2018-08-16T09:16:25.959Z,2824
2018-08-16T09:17:06.271Z,2484
2018-08-16T09:17:48.255Z,2724
2018-08-16T09:18:28.100Z,2924
2018-08-16T09:19:09.106Z,2928
2018-08-16T09:19:53.988Z,2848
2018-08-16T09:20:35.557Z,2692
2018-08-16T09:21:16.843Z,2696
2018-08-16T09:22:28.230Z,2996
2018-08-16T09:23:09.254Z,2880
2018-08-16T09:23:50.501Z,2716
2018-08-16T09:24:30.932Z,2564
2018-08-16T09:25:12.268Z,2584
2018-08-16T09:25:52.842Z,2608
2018-08-16T09:26:33.431Z,2744
2018-08-16T09:27:14.966Z,2824
2018-08-16T09:27:55.509Z,2844
2018-08-16T09:28:36.798Z,2672
2018-08-16T09:29:18.491Z,2608
2018-08-16T09:41:02.043Z,2572
2018-08-16T09:41:42.485Z,2600
2018-08-16T09:42:24.355Z,2608
2018-08-16T09:43:06.900Z,2556
2018-08-16T09:43:46.408Z,2556
2018-08-16T09:45:48.285Z,2560
2018-08-16T09:52:22.655Z,1976
2018-08-16T09:53:52.845Z,1948
2018-08-16T09:55:40.897Z,2356
2018-08-16T09:56:53.870Z,2388
2018-08-16T09:57:33.041Z,1896
2018-08-16T09:58:14.476Z,1808
2018-08-16T09:58:53.985Z,2252
2018-08-16T09:59:34.717Z,2316
2018-08-16T10:00:15.263Z,1972
2018-08-16T10:00:56.599Z,2084
2018-08-16T10:01:36.604Z,2260
2018-08-16T10:02:17.677Z,2252
2018-08-16T10:02:57.988Z,2280
2018-08-16T10:03:38.644Z,2292
2018-08-16T10:04:19.233Z,2312
2018-08-16T10:04:59.982Z,2244
2018-08-16T10:05:40.300Z,2244
2018-08-16T10:06:21.530Z,2232
2018-08-16T10:07:02.663Z,2220
2018-08-16T10:07:43.236Z,2192
2018-08-16T10:08:23.799Z,2180
2018-08-16T10:09:04.660Z,2136
2018-08-16T10:09:44.917Z,2192
2018-08-16T10:10:25.863Z,2192
2018-08-16T10:11:06.544Z,2172
2018-08-16T10:11:47.387Z,2144
2018-08-16T10:12:28.251Z,2136
2018-08-16T10:13:09.061Z,2052
2018-08-16T10:13:49.984Z,2024
2018-08-16T10:14:30.948Z,2020
2018-08-16T10:15:11.596Z,2048
2018-08-16T10:15:52.217Z,2020
2018-08-16T10:16:32.594Z,2072
2018-08-16T10:17:13.041Z,2032
2018-08-16T10:17:53.465Z,2040
2018-08-16T10:18:33.838Z,2060
2018-08-16T10:19:14.376Z,2020
2018-08-16T10:19:54.769Z,1988
2018-08-16T10:20:35.390Z,2044
2018-08-16T10:21:15.945Z,2028
2018-08-16T10:21:56.498Z,2012
2018-08-16T10:22:36.808Z,1964
2018-08-16T10:23:17.276Z,2004
2018-08-16T10:23:57.697Z,1984
2018-08-16T10:24:38.094Z,1892
2018-08-16T10:25:18.618Z,1836
2018-08-16T10:25:59.063Z,1776
2018-08-16T10:26:39.487Z,1764
2018-08-16T10:27:19.920Z,1868
2018-08-16T10:28:00.308Z,1972
2018-08-16T10:28:40.833Z,1928
2018-08-16T10:29:21.333Z,1952
2018-08-16T11:07:42.282Z,2124
2018-08-16T11:08:25.545Z,2068
2018-08-16T11:09:06.165Z,2076
2018-08-16T11:09:46.668Z,2104
2018-08-16T11:10:26.979Z,2100
2018-08-16T11:11:07.435Z,2008
2018-08-16T11:11:47.897Z,1968
2018-08-16T11:12:28.393Z,1996
2018-08-16T11:13:08.792Z,2044
2018-08-16T11:13:49.432Z,2064
2018-08-16T11:14:30.360Z,2136
2018-08-16T11:15:11.350Z,2124
2018-08-16T11:15:52.353Z,2180
2018-08-16T11:16:33.073Z,2184
2018-08-16T11:17:13.484Z,2204
2018-08-16T11:17:54.046Z,2068
2018-08-16T11:18:34.840Z,2168
2018-08-16T11:19:16.901Z,2188
2018-08-16T11:19:56.660Z,2196
2018-08-16T11:20:38.387Z,2224
2018-08-16T11:21:20.349Z,2204
2018-08-16T11:22:00.819Z,2120
2018-08-16T11:22:41.804Z,2124
2018-08-16T11:23:22.024Z,2188
2018-08-16T11:24:02.436Z,2272
2018-08-16T11:29:29.669Z,2204
2018-08-16T11:30:33.411Z,2192
2018-08-16T11:31:13.882Z,2204
2018-08-16T11:31:54.373Z,2172
2018-08-16T11:32:34.673Z,2096
2018-08-16T11:33:15.085Z,2144
2018-08-16T11:33:55.761Z,2120
2018-08-16T11:34:36.233Z,2136
2018-08-16T11:35:16.875Z,2164
2018-08-16T11:35:57.930Z,2104
2018-08-16T11:36:37.874Z,2100
2018-08-16T11:37:18.372Z,2140
2018-08-16T11:37:58.897Z,2148
2018-08-16T11:38:39.362Z,2048
2018-08-16T11:39:20.961Z,2008
2018-08-16T11:40:00.596Z,1948
2018-08-16T11:40:42.020Z,2056
2018-08-16T11:41:22.099Z,2072
2018-08-16T11:42:03.306Z,2128
2018-08-16T11:42:43.573Z,2148
2018-08-16T11:43:24.550Z,2156
2018-08-16T11:44:05.941Z,2124
2018-08-16T11:44:46.253Z,2108
2018-08-16T11:45:26.708Z,2024
2018-08-16T11:46:07.066Z,2076
2018-08-16T11:46:47.772Z,2044
2018-08-16T11:47:28.909Z,2016
2018-08-16T11:48:10.424Z,2040
2018-08-16T11:48:50.358Z,2064
2018-08-16T11:49:31.010Z,2036
2018-08-16T11:50:11.997Z,2064
2018-08-16T11:50:52.702Z,2040
2018-08-16T11:51:32.950Z,2068
2018-08-16T11:52:13.500Z,2096
2018-08-16T11:52:54.104Z,2044
2018-08-16T11:53:34.634Z,2016
2018-08-16T11:54:15.056Z,1960
2018-08-16T11:54:55.632Z,1896
2018-08-16T11:55:36.116Z,1912
2018-08-16T11:56:16.524Z,1916
2018-08-16T11:56:56.993Z,1812
2018-08-16T11:57:38.415Z,1844
2018-08-16T11:58:19.302Z,1836
2018-08-16T11:59:07.202Z,1816
2018-08-16T11:59:47.599Z,1828
2018-08-16T12:00:28.002Z,1812
2018-08-16T12:01:08.446Z,1808
2018-08-16T12:01:48.875Z,1752
2018-08-16T12:02:29.314Z,1732
2018-08-16T12:03:09.733Z,1752
2018-08-16T12:03:50.178Z,1812
2018-08-16T12:04:30.581Z,1800
2018-08-16T12:05:11.101Z,1756
2018-08-16T12:05:51.617Z,1748
2018-08-16T12:06:32.456Z,1772
2018-08-16T12:07:12.831Z,1848
2018-08-16T12:07:53.229Z,1872
2018-08-16T12:08:33.751Z,1872
2018-08-16T12:09:14.132Z,1896
2018-08-16T12:09:54.601Z,1944
2018-08-16T12:10:35.048Z,1972
2018-08-16T12:11:15.422Z,1972
2018-08-16T12:11:55.869Z,1976
2018-08-16T12:12:36.255Z,2016
2018-08-16T12:13:16.723Z,2036
2018-08-16T12:13:57.132Z,2040
2018-08-16T12:14:37.610Z,2044
2018-08-16T12:15:18.085Z,2088
2018-08-16T12:15:58.326Z,2096
2018-08-16T12:16:38.944Z,2104
2018-08-16T12:17:19.442Z,2108
2018-08-16T12:17:59.928Z,2072
2018-08-16T12:18:40.308Z,2052
2018-08-16T12:19:21.042Z,2076
2018-08-16T12:20:01.555Z,2092
2018-08-16T12:20:41.987Z,2064
2018-08-16T12:21:22.445Z,2028
2018-08-16T12:22:03.606Z,1960
2018-08-16T12:22:43.644Z,2028
2018-08-16T12:23:24.014Z,2024
2018-08-16T12:24:04.526Z,1976
2018-08-16T12:24:44.867Z,1960
2018-08-16T12:25:25.499Z,1924
2018-08-16T12:26:06.061Z,1912
2018-08-16T12:26:46.693Z,1948
2018-08-16T12:27:27.180Z,1956
2018-08-16T12:28:07.600Z,1944
2018-08-16T12:28:48.107Z,1936
2018-08-16T12:29:28.610Z,1916
2018-08-16T12:30:09.979Z,1908
2018-08-16T12:30:49.601Z,1892
2018-08-16T12:31:29.978Z,1868
2018-08-16T12:32:10.402Z,1832
2018-08-16T12:32:51.078Z,1820
2018-08-16T12:33:31.513Z,1792
2018-08-16T12:34:11.945Z,1816
2018-08-16T12:34:52.419Z,1860
2018-08-16T12:35:33.452Z,1784
2018-08-16T12:36:13.561Z,1816
2018-08-16T12:36:54.008Z,1804
2018-08-16T12:37:35.519Z,1796
2018-08-16T12:38:18.335Z,1824
2018-08-16T12:38:58.927Z,1852
2018-08-16T12:39:40.195Z,1856
2018-08-16T12:40:20.477Z,1840
2018-08-16T12:43:16.840Z,1844
2018-08-16T12:43:57.128Z,1820
2018-08-16T12:44:37.372Z,1812
2018-08-16T12:45:17.960Z,1788
2018-08-16T12:46:02.345Z,1792
2018-08-16T12:46:42.004Z,1792
2018-08-16T12:47:23.056Z,1796
2018-08-16T12:48:03.676Z,1804
2018-08-16T12:48:44.148Z,1812
2018-08-16T12:49:24.520Z,1784
2018-08-16T12:50:05.072Z,1728
2018-08-16T12:50:45.504Z,1792
2018-08-16T12:51:26.044Z,1800
2018-08-16T12:52:07.847Z,1824
2018-08-16T12:52:48.517Z,1844
2018-08-16T12:53:44.162Z,1820
2018-08-16T12:56:26.801Z,1860
2018-08-16T12:57:08.584Z,1824
2018-08-16T12:57:48.953Z,1712
2018-08-16T12:58:29.451Z,1676
2018-08-16T12:59:10.000Z,1720
2018-08-16T12:59:50.519Z,1724
2018-08-16T13:00:31.062Z,1748
2018-08-16T13:01:11.610Z,1724
2018-08-16T13:01:52.255Z,1752
2018-08-16T13:02:32.780Z,1708
2018-08-16T13:03:14.414Z,1752
2018-08-16T13:03:54.964Z,1692
2018-08-16T13:04:35.404Z,1676
2018-08-16T13:05:17.192Z,1708
2018-08-16T13:05:58.037Z,1720
2018-08-16T13:06:39.588Z,1708
2018-08-16T13:07:22.495Z,1716
2018-08-16T13:09:59.913Z,1688
2018-08-16T13:13:12.862Z,1704
2018-08-16T13:13:53.021Z,1700
2018-08-16T13:14:33.898Z,1684
2018-08-16T13:15:14.265Z,1632
2018-08-16T13:15:55.493Z,1564
2018-08-16T13:16:36.399Z,1696
2018-08-16T13:17:17.606Z,1724
2018-08-16T13:17:58.937Z,1668
2018-08-16T13:18:38.739Z,1720
2018-08-16T13:19:19.194Z,1672
2018-08-16T13:20:00.356Z,1756
2018-08-16T13:20:41.526Z,1748
2018-08-16T13:21:22.002Z,1744
2018-08-16T13:22:02.458Z,1728
2018-08-16T13:22:45.509Z,1728
2018-08-16T13:23:30.241Z,1728
2018-08-16T13:24:11.492Z,1696
2018-08-16T13:24:51.776Z,1672
2018-08-16T13:25:32.163Z,1680
2018-08-16T13:26:12.662Z,1720
2018-08-16T13:26:53.145Z,1736
2018-08-16T13:27:33.526Z,1720
2018-08-16T13:28:13.946Z,1760
2018-08-16T13:28:54.590Z,1752
2018-08-16T13:29:35.012Z,1700
2018-08-16T13:30:15.542Z,1648
2018-08-16T13:30:55.978Z,1624
2018-08-16T13:31:36.479Z,1652
2018-08-16T13:32:17.129Z,1660
2018-08-16T13:32:58.097Z,1668
2018-08-16T13:33:38.749Z,1716
2018-08-16T13:34:19.869Z,1672
2018-08-16T13:34:59.931Z,1628
2018-08-16T13:35:40.487Z,1704
2018-08-16T13:36:21.202Z,1692
2018-08-16T13:37:01.450Z,1720
2018-08-16T13:37:42.876Z,1724
2018-08-16T13:38:22.478Z,1732
2018-08-16T13:39:02.919Z,1732
2018-08-16T13:39:43.385Z,1736
2018-08-16T13:40:23.950Z,1696
2018-08-16T13:41:04.393Z,1680
2018-08-16T13:41:45.080Z,1676
2018-08-16T13:42:25.685Z,1732
2018-08-16T13:43:06.015Z,1752
2018-08-16T13:43:46.764Z,1780
2018-08-16T13:44:27.782Z,1768
2018-08-16T13:45:16.869Z,1796
2018-08-16T13:45:57.342Z,1792
2018-08-16T13:46:37.804Z,1796
2018-08-16T13:47:18.475Z,1772
2018-08-16T13:47:59.043Z,1772
2018-08-16T13:48:39.562Z,1784
2018-08-16T13:49:20.378Z,1756
2018-08-16T13:50:00.939Z,1712
2018-08-16T13:50:42.377Z,1708
2018-08-16T13:51:25.092Z,1700
2018-08-16T13:52:05.367Z,1728
2018-08-16T13:52:45.477Z,1728
2018-08-16T13:53:26.019Z,1732
2018-08-16T13:54:06.537Z,1708
2018-08-16T13:54:48.391Z,1700
2018-08-16T13:55:28.523Z,1696
2018-08-16T13:56:09.938Z,1712
2018-08-16T13:56:51.384Z,1720
2018-08-16T13:57:31.231Z,1712
2018-08-16T13:58:12.131Z,1724
2018-08-16T13:58:52.733Z,1712
2018-08-16T13:59:33.400Z,1708
2018-08-16T14:00:14.028Z,1724
2018-08-16T14:00:55.392Z,1716
2018-08-16T14:01:35.744Z,1716
2018-08-16T14:02:16.510Z,1704
2018-08-16T14:02:57.040Z,1692
2018-08-16T14:03:37.617Z,1628
2018-08-16T14:04:18.123Z,1628
2018-08-16T14:04:59.622Z,1636
2018-08-16T14:05:39.745Z,1660
2018-08-16T14:06:20.863Z,1620
2018-08-16T14:07:00.871Z,1672
2018-08-16T14:07:41.524Z,1684
2018-08-16T14:08:22.043Z,1700
2018-08-16T14:09:02.603Z,1700
2018-08-16T14:09:43.891Z,1704
2018-08-16T14:10:24.578Z,1692
2018-08-16T14:11:05.128Z,1732
2018-08-16T14:15:03.971Z,1568
2018-08-16T14:16:14.763Z,1460
2018-08-16T14:16:59.405Z,1416
2018-08-16T14:17:39.508Z,1492
2018-08-16T14:18:20.091Z,1528
2018-08-16T14:19:04.456Z,1460
2018-08-16T14:19:44.728Z,1452
2018-08-16T14:20:27.557Z,1448
2018-08-16T14:21:07.682Z,1440
2018-08-16T14:21:51.597Z,1416
2018-08-16T14:22:33.200Z,1420
2018-08-16T14:23:13.462Z,1480
2018-08-16T14:23:53.902Z,1488
2018-08-16T14:24:34.446Z,1508
2018-08-16T14:25:15.636Z,1508
2018-08-16T14:25:56.448Z,1500
2018-08-16T14:26:37.104Z,1496
2018-08-16T14:27:18.712Z,1472
2018-08-16T14:27:58.637Z,1452
2018-08-16T14:28:39.553Z,1488
2018-08-16T14:29:20.669Z,1500
2018-08-16T14:30:01.533Z,1492
2018-08-16T14:30:42.263Z,1504
2018-08-16T14:31:23.025Z,1492
2018-08-16T14:32:03.996Z,1500
2018-08-16T14:32:44.795Z,1508
2018-08-16T14:33:25.553Z,1492
2018-08-16T14:34:06.023Z,1492
2018-08-16T14:34:46.736Z,1476
2018-08-16T14:35:28.237Z,1468
2018-08-16T14:36:08.163Z,1456
2018-08-16T14:36:50.229Z,1440
2018-08-16T14:37:30.413Z,1432
2018-08-16T14:38:12.227Z,1448
2018-08-16T14:38:52.398Z,1476
2018-08-16T14:39:33.720Z,1468
2018-08-16T14:40:13.685Z,1452
2018-08-16T14:40:54.345Z,1472
2018-08-16T14:41:34.977Z,1472
2018-08-16T14:42:15.353Z,1488
2018-08-16T14:42:56.292Z,1468
2018-08-16T14:43:36.847Z,1448
2018-08-16T14:44:17.897Z,1416
2018-08-16T14:44:57.871Z,1428
2018-08-16T14:45:38.349Z,1412
2018-08-16T14:46:18.757Z,1408
2018-08-16T14:46:59.287Z,1436
2018-08-16T14:47:39.755Z,1436
2018-08-16T14:48:20.217Z,1436
2018-08-16T14:49:00.603Z,1428
2018-08-16T14:49:44.246Z,1428
2018-08-16T14:50:24.498Z,1424
2018-08-16T14:51:05.919Z,1408
2018-08-16T14:51:47.440Z,1392
2018-08-16T14:52:28.036Z,1396
2018-08-16T14:53:08.920Z,1396
2018-08-16T14:53:50.263Z,1388
2018-08-16T14:54:30.010Z,1376
2018-08-16T14:55:10.460Z,1364
2018-08-16T14:55:50.858Z,1360
2018-08-16T14:56:31.492Z,1340
2018-08-16T14:57:11.994Z,1336
2018-08-16T14:57:52.599Z,1308
2018-08-16T14:58:33.503Z,1304
2018-08-16T14:59:15.813Z,1300
2018-08-16T14:59:56.489Z,1264
2018-08-16T15:00:37.772Z,1228
2018-08-16T15:01:19.263Z,1216
2018-08-16T15:01:59.629Z,1268
2018-08-16T15:02:40.626Z,1272
2018-08-16T15:03:21.961Z,1264
2018-08-16T15:04:02.437Z,1256
2018-08-16T15:04:42.947Z,1248
2018-08-16T15:05:25.718Z,1240
2018-08-16T15:06:06.003Z,1252
2018-08-16T15:06:46.412Z,1244
2018-08-16T15:07:28.611Z,1228
2018-08-16T15:08:16.480Z,1220
2018-08-16T15:08:56.367Z,1208
2018-08-16T15:09:47.737Z,1184
2018-08-16T15:10:31.017Z,1208
2018-08-16T15:11:11.345Z,1188
2018-08-16T15:11:53.758Z,1204
2018-08-16T15:12:34.172Z,1200
2018-08-16T15:13:14.668Z,1200
2018-08-16T15:13:55.142Z,1188
2018-08-16T15:14:35.555Z,1168
2018-08-16T15:15:16.818Z,1208
2018-08-16T15:15:59.085Z,1180
2018-08-16T15:16:40.564Z,1196
2018-08-16T15:17:21.433Z,1168
2018-08-16T15:18:02.116Z,1148
2018-08-16T15:18:42.888Z,1152
2018-08-16T15:19:22.910Z,1140
2018-08-16T15:20:03.443Z,1140
2018-08-16T15:20:43.898Z,1124
2018-08-16T15:21:24.327Z,1128
2018-08-16T15:22:04.727Z,1132
2018-08-16T15:22:45.512Z,1132
2018-08-16T15:23:26.027Z,1124
2018-08-16T15:24:06.550Z,1128
2018-08-16T15:24:46.902Z,1124
2018-08-16T15:25:27.360Z,1144
2018-08-16T15:26:07.782Z,1156
2018-08-16T15:26:48.257Z,1160
2018-08-16T15:27:28.716Z,1156
2018-08-16T15:28:09.173Z,1144
2018-08-16T15:28:49.593Z,1116
2018-08-16T15:29:30.085Z,1096
2018-08-16T15:30:11.237Z,1096
2018-08-16T15:30:50.984Z,1108
2018-08-16T15:31:31.591Z,1096
2018-08-16T15:32:12.129Z,1084
2018-08-16T15:32:52.535Z,1088
2018-08-16T15:33:33.125Z,1088
2018-08-16T15:34:14.274Z,1088
2018-08-16T15:34:54.897Z,1096
2018-08-16T15:35:35.397Z,1088
2018-08-16T15:36:15.846Z,1076
2018-08-16T15:36:56.492Z,1052
2018-08-16T15:37:37.044Z,1044
2018-08-16T15:38:17.397Z,1032
2018-08-16T15:38:57.842Z,1032
2018-08-16T15:39:38.257Z,1020
2018-08-16T15:40:18.691Z,1012
2018-08-16T15:40:59.222Z,1024
2018-08-16T15:41:39.741Z,1040
2018-08-16T15:42:20.210Z,1044
2018-08-16T15:43:00.639Z,1052
2018-08-16T15:43:41.094Z,1064
2018-08-16T15:44:21.552Z,1052
2018-08-16T15:45:01.923Z,1008
2018-08-16T15:45:42.386Z,1040
2018-08-16T15:46:23.783Z,1068
2018-08-16T15:47:03.665Z,1072
2018-08-16T15:47:44.511Z,1084
2018-08-16T15:48:26.400Z,1092
2018-08-16T15:49:06.941Z,1096
2018-08-16T15:49:48.280Z,1096
2018-08-16T15:50:29.760Z,1116
2018-08-16T15:51:09.631Z,1104
2018-08-16T15:51:49.950Z,1112
2018-08-16T15:52:30.430Z,1108
2018-08-16T15:53:11.034Z,1100
2018-08-16T15:53:51.277Z,1088
2018-08-16T15:54:31.765Z,1092
2018-08-16T15:55:13.203Z,1092
2018-08-16T15:55:53.606Z,1084
2018-08-16T15:56:34.327Z,1068
2018-08-16T15:57:14.819Z,1068
2018-08-16T15:57:55.493Z,1060
2018-08-16T15:58:36.084Z,1068
2018-08-16T15:59:16.846Z,1064
2018-08-16T15:59:57.306Z,1060
2018-08-16T16:00:37.631Z,1048
2018-08-16T16:01:18.098Z,1060
2018-08-16T16:01:58.528Z,1048
2018-08-16T16:02:38.897Z,1052
2018-08-16T16:03:19.384Z,1052
2018-08-16T16:03:59.835Z,1052
2018-08-16T16:04:40.129Z,1040
2018-08-16T16:05:20.564Z,1032
2018-08-16T16:06:01.150Z,1032
2018-08-16T16:06:41.474Z,1012
2018-08-16T16:07:21.813Z,1020
2018-08-16T16:08:02.274Z,1016
2018-08-16T16:08:42.656Z,1012
2018-08-16T16:09:23.218Z,1004
2018-08-16T16:10:03.630Z,988
2018-08-16T16:10:44.054Z,980
2018-08-16T16:11:24.561Z,984
2018-08-16T16:12:05.030Z,956
2018-08-16T16:12:45.534Z,944
2018-08-16T16:13:25.948Z,948
2018-08-16T16:14:07.303Z,940
2018-08-16T16:14:47.772Z,928
2018-08-16T16:15:28.135Z,936
2018-08-16T16:16:08.596Z,928
2018-08-16T16:16:49.211Z,908
2018-08-16T16:17:30.128Z,880
2018-08-16T16:18:10.807Z,880
2018-08-16T16:18:51.272Z,876
2018-08-16T16:19:32.158Z,884
2018-08-16T16:20:12.669Z,868
2018-08-16T16:20:53.137Z,832
2018-08-16T16:21:33.851Z,840
2018-08-16T16:22:14.226Z,852
2018-08-16T16:22:54.723Z,848
2018-08-16T16:23:35.096Z,828
2018-08-16T16:24:15.604Z,832
2018-08-16T16:24:56.071Z,832
2018-08-16T16:25:36.680Z,820
2018-08-16T16:26:17.360Z,856
2018-08-16T16:26:57.962Z,884
2018-08-16T16:27:38.261Z,896
2018-08-16T16:28:19.088Z,884
2018-08-16T16:29:00.288Z,880
2018-08-16T16:29:40.236Z,880
2018-08-16T16:30:20.804Z,880
2018-08-16T16:31:04.978Z,868
2018-08-16T16:31:45.874Z,868
2018-08-16T17:08:32.671Z,704
2018-08-16T17:09:13.099Z,700
2018-08-16T17:09:53.603Z,692
2018-08-16T17:10:34.163Z,688
2018-08-16T17:11:14.533Z,688
2018-08-16T17:11:56.910Z,696
2018-08-16T17:12:37.160Z,692